New Smyrna Beach, Florida
Current Conditions -  °F | °C
As of 9:53 PM on Saturday 20 Dec 2014 (Local Time) from KDAB Reporting Station
Broken Clouds Broken Clouds  
Wind Chill: 65°   Ceiling: 11000
Heat Index: 65°   Visibility: 7mi
Dew Point: 63°   Wind: 0mph
Humidity: 93%   Direction: NA
Pressure: 30.11"   Gusts: NA
Location:  29.03°N, 80.92°W
Report Text: KDAB 210253Z 00000KT 7SM BKN110 18/17 A3011 RMK AO2 SLP196 T01830172 53003
Loading
Personal Weather Stations






























Interactive Weather Map New forecast layout! Learn more

10-Day Weather Forecast

Advertisements
Track Severe Weather on mobile